Time;durP1;ratioP1;P1;durP2;ratioP2;P2;SDS_P1;SDS_P2;PMS_P1;PMS_P2;Temp;Humidity;BMP_temperature;BMP_pressure;BME280_temperature;BME280_humidity;BME280_pressure;Samples;Min_cycle;Max_cycle;Signal;HPM_P1;HPM_P2
2021/03/05 00:01:52;;;;;;;10.60;5.03;;;5.30;99.90;;;;;;6280431;28;20230;-67
2021/03/05 00:04:54;;;;;;;8.17;4.40;;;5.30;99.90;;;;;;6264796;28;20229;-67
2021/03/05 00:07:56;;;;;;;7.03;4.27;;;5.30;99.90;;;;;;6238676;28;20703;-67
2021/03/05 00:10:58;;;;;;;8.63;4.00;;;5.30;99.90;;;;;;6256257;28;20691;-67
2021/03/05 00:14:01;;;;;;;9.17;4.57;;;5.30;99.90;;;;;;6255434;28;20599;-67
2021/03/05 00:17:03;;;;;;;8.07;4.80;;;5.50;99.90;;;;;;6236997;28;20247;-67
2021/03/05 00:20:11;;;;;;;10.77;4.27;;;5.60;99.90;;;;;;6238381;28;20222;-67
2021/03/05 00:23:13;;;;;;;8.83;4.40;;;5.70;99.90;;;;;;6255927;28;20223;-67
2021/03/05 00:26:15;;;;;;;10.50;4.73;;;5.70;99.90;;;;;;6255320;28;20259;-67
2021/03/05 00:29:17;;;;;;;8.93;4.43;;;5.70;99.90;;;;;;6255868;28;20227;-67
2021/03/05 00:32:19;;;;;;;9.40;3.90;;;5.80;99.90;;;;;;6237640;28;20758;-67
2021/03/05 00:35:21;;;;;;;9.90;4.07;;;6.00;99.90;;;;;;6254504;28;20230;-67
2021/03/05 00:38:24;;;;;;;7.67;3.97;;;6.10;99.90;;;;;;6254790;28;20369;-67
2021/03/05 00:41:26;;;;;;;6.17;3.90;;;6.20;99.90;;;;;;6255109;28;20226;-67
2021/03/05 00:44:27;;;;;;;6.80;3.67;;;6.20;99.90;;;;;;6257062;28;20231;-67
2021/03/05 00:47:29;;;;;;;7.67;3.60;;;6.30;99.90;;;;;;6260758;28;20256;-67
2021/03/05 00:50:32;;;;;;;10.80;4.63;;;6.40;99.90;;;;;;6260018;28;20299;-68
2021/03/05 00:53:36;;;;;;;9.03;4.10;;;6.40;99.90;;;;;;6226413;28;20720;-67
2021/03/05 00:56:39;;;;;;;8.03;4.33;;;6.70;99.90;;;;;;6242156;28;20711;-67
2021/03/05 00:59:41;;;;;;;8.83;4.43;;;7.00;99.90;;;;;;6259937;28;20234;-67
2021/03/05 01:02:43;;;;;;;14.63;4.83;;;7.20;99.50;;;;;;6241554;28;20577;-67
2021/03/05 01:05:45;;;;;;;11.00;4.70;;;7.50;98.20;;;;;;6278570;28;20222;-67
2021/03/05 01:08:49;;;;;;;8.03;4.23;;;7.80;97.10;;;;;;6249322;28;20223;-67
2021/03/05 01:11:51;;;;;;;12.23;4.70;;;8.00;95.80;;;;;;6283568;28;20235;-67
2021/03/05 01:14:54;;;;;;;12.47;4.30;;;8.20;95.40;;;;;;6284188;28;20381;-67
2021/03/05 01:17:56;;;;;;;11.77;4.37;;;8.30;96.40;;;;;;6283617;28;20245;-67
2021/03/05 01:20:58;;;;;;;13.07;4.57;;;8.30;96.70;;;;;;6282910;28;20722;-67
2021/03/05 01:24:00;;;;;;;10.87;4.97;;;8.40;94.20;;;;;;6265955;28;20306;-67
2021/03/05 01:27:03;;;;;;;9.23;4.77;;;8.40;95.80;;;;;;6249514;28;20220;-67
2021/03/05 01:30:12;;;;;;;13.63;4.80;;;8.40;94.90;;;;;;6168014;28;20726;-67
2021/03/05 01:33:14;;;;;;;9.87;4.10;;;8.60;94.90;;;;;;6258325;28;20437;-67
2021/03/05 01:36:16;;;;;;;9.77;5.00;;;8.70;94.40;;;;;;6256692;28;20214;-67
2021/03/05 01:39:18;;;;;;;17.00;5.47;;;8.70;94.20;;;;;;6258101;28;20225;-67
2021/03/05 01:42:19;;;;;;;11.47;4.87;;;8.70;94.30;;;;;;6256643;28;20203;-67
2021/03/05 01:45:25;;;;;;;14.70;5.53;;;8.70;94.40;;;;;;6258408;28;20250;-67
2021/03/05 01:48:28;;;;;;;14.33;5.57;;;8.60;94.90;;;;;;6258739;28;20238;-67
2021/03/05 01:51:32;;;;;;;12.63;5.60;;;8.70;94.50;;;;;;6258148;28;20248;-67
2021/03/05 01:54:34;;;;;;;12.43;5.33;;;8.80;93.90;;;;;;6258613;28;20304;-67
2021/03/05 01:57:36;;;;;;;13.30;6.40;;;8.80;93.90;;;;;;6255846;28;20223;-67
2021/03/05 02:00:48;;;;;;;15.97;5.60;;;8.70;94.50;;;;;;6258757;28;20224;-67
2021/03/05 02:03:50;;;;;;;12.97;5.83;;;8.80;94.60;;;;;;6249859;28;20239;-67
2021/03/05 02:06:52;;;;;;;15.60;5.53;;;8.70;95.00;;;;;;6234078;28;20231;-67
2021/03/05 02:09:54;;;;;;;11.37;5.13;;;8.70;94.90;;;;;;6231369;28;20701;-67
2021/03/05 02:12:56;;;;;;;8.87;5.70;;;8.70;95.30;;;;;;6230970;28;20233;-67
2021/03/05 02:16:01;;;;;;;11.17;5.50;;;8.60;95.50;;;;;;6233323;28;20696;-67
2021/03/05 02:19:12;;;;;;;10.10;5.03;;;8.60;95.70;;;;;;6232536;28;20229;-67
2021/03/05 02:22:38;;;;;;;12.47;5.30;;;8.50;96.00;;;;;;6233072;28;20320;-67
2021/03/05 02:25:58;;;;;;;13.37;5.37;;;8.50;95.80;;;;;;6232159;28;20593;-67
2021/03/05 02:29:10;;;;;;;10.63;5.53;;;8.60;96.00;;;;;;6245807;28;20241;-67
2021/03/05 02:32:29;;;;;;;13.40;5.07;;;8.60;95.90;;;;;;6257321;28;20226;-67
2021/03/05 02:35:33;;;;;;;12.97;4.57;;;8.60;96.10;;;;;;6256514;28;20649;-67
2021/03/05 02:38:36;;;;;;;13.50;6.10;;;8.60;96.30;;;;;;6258488;28;20683;-67
2021/03/05 02:41:41;;;;;;;18.27;6.43;;;8.60;96.10;;;;;;6258144;28;20680;-67
2021/03/05 02:44:57;;;;;;;13.77;5.30;;;8.60;96.20;;;;;;6257464;28;20247;-67
2021/03/05 02:48:21;;;;;;;13.63;5.47;;;8.50;96.70;;;;;;6257257;28;20312;-67
2021/03/05 02:51:27;;;;;;;11.47;5.53;;;8.40;96.90;;;;;;6256780;28;20235;-67
2021/03/05 02:54:31;;;;;;;9.83;5.47;;;8.40;97.20;;;;;;6238859;28;20240;-67
2021/03/05 02:57:37;;;;;;;16.90;6.30;;;8.30;97.50;;;;;;6239518;28;20242;-67
2021/03/05 03:00:40;;;;;;;11.03;5.53;;;8.20;97.90;;;;;;6257473;28;20687;-67
2021/03/05 03:03:43;;;;;;;14.43;6.03;;;8.10;98.30;;;;;;6259740;28;20231;-67
2021/03/05 03:06:45;;;;;;;15.10;5.77;;;7.90;99.10;;;;;;6281269;28;20235;-67
2021/03/05 03:09:48;;;;;;;13.90;6.30;;;7.80;99.90;;;;;;6280492;28;20251;-67
2021/03/05 03:12:55;;;;;;;18.73;7.40;;;7.80;99.90;;;;;;6281931;28;20377;-67
2021/03/05 03:15:59;;;;;;;15.60;6.60;;;7.90;99.90;;;;;;6281710;28;20237;-67
2021/03/05 03:19:02;;;;;;;16.10;7.10;;;7.90;99.90;;;;;;6279799;28;20726;-67
2021/03/05 03:22:05;;;;;;;14.40;7.97;;;7.90;99.90;;;;;;6280111;28;20632;-67
2021/03/05 03:25:07;;;;;;;13.87;8.40;;;7.90;99.90;;;;;;6281083;28;20740;-63
2021/03/05 03:28:10;;;;;;;11.57;8.40;;;8.00;99.90;;;;;;6240309;28;20268;-63
2021/03/05 03:31:14;;;;;;;20.97;8.90;;;8.00;99.90;;;;;;6255047;28;20306;-63
2021/03/05 03:34:18;;;;;;;15.20;8.30;;;8.00;99.90;;;;;;6255639;28;20239;-63
2021/03/05 03:37:20;;;;;;;16.93;8.97;;;8.00;99.90;;;;;;6257422;28;20326;-63
2021/03/05 03:40:22;;;;;;;17.23;8.83;;;8.00;99.90;;;;;;6256242;28;20322;-63
2021/03/05 03:43:25;;;;;;;20.07;9.73;;;8.00;99.90;;;;;;6254065;28;20238;-63
2021/03/05 03:46:29;;;;;;;13.93;8.60;;;7.90;99.90;;;;;;6255968;28;20226;-63
2021/03/05 03:49:44;;;;;;;12.27;8.27;;;7.90;99.90;;;;;;6255938;28;20230;-63
2021/03/05 03:52:51;;;;;;;13.50;8.10;;;7.90;99.90;;;;;;6256836;28;20715;-63
2021/03/05 03:55:55;;;;;;;16.57;8.30;;;7.80;99.90;;;;;;6238409;28;20629;-63
2021/03/05 03:58:57;;;;;;;16.50;7.80;;;7.70;99.90;;;;;;6256434;28;20576;-63
2021/03/05 04:02:01;;;;;;;15.23;8.63;;;7.70;99.90;;;;;;6229890;28;20307;-66
2021/03/05 04:05:07;;;;;;;14.37;8.87;;;7.60;99.90;;;;;;6229203;28;20342;-67
2021/03/05 04:08:10;;;;;;;17.33;9.43;;;7.60;99.90;;;;;;6231762;28;20719;-67
2021/03/05 04:11:12;;;;;;;16.23;9.67;;;7.60;99.90;;;;;;6230813;28;20228;-67
2021/03/05 04:14:15;;;;;;;15.93;8.57;;;7.60;99.90;;;;;;6231819;28;20379;-67
2021/03/05 04:17:17;;;;;;;16.70;10.57;;;7.50;99.90;;;;;;6231479;28;20684;-67
2021/03/05 04:20:24;;;;;;;16.13;10.30;;;7.50;99.90;;;;;;6235923;28;20234;-67
2021/03/05 04:23:26;;;;;;;20.67;11.20;;;7.50;99.90;;;;;;6237138;28;20243;-67
2021/03/05 04:26:28;;;;;;;17.70;10.00;;;7.60;99.90;;;;;;6235659;28;20266;-67
2021/03/05 04:29:30;;;;;;;13.83;9.97;;;7.60;99.90;;;;;;6234252;28;20237;-67
2021/03/05 04:32:32;;;;;;;14.93;10.60;;;7.60;99.90;;;;;;6235246;28;20253;-67
2021/03/05 04:35:34;;;;;;;15.77;9.93;;;7.60;99.90;;;;;;6255231;28;20711;-67
2021/03/05 04:38:36;;;;;;;16.37;9.53;;;7.50;99.90;;;;;;6259511;28;20658;-67
2021/03/05 04:41:37;;;;;;;13.30;10.17;;;7.50;99.90;;;;;;6259962;28;20230;-67
2021/03/05 04:44:39;;;;;;;13.23;9.63;;;7.50;99.90;;;;;;6259836;28;20688;-67
2021/03/05 04:47:41;;;;;;;9.87;7.43;;;7.50;99.90;;;;;;6260084;28;20238;-67
2021/03/05 04:50:43;;;;;;;15.40;7.37;;;7.40;99.90;;;;;;6258865;28;20284;-67
2021/03/05 04:53:49;;;;;;;12.37;7.00;;;7.40;99.90;;;;;;6259308;28;20278;-67
2021/03/05 04:56:51;;;;;;;11.37;6.50;;;7.40;99.90;;;;;;6258101;28;20231;-67
2021/03/05 04:59:52;;;;;;;9.07;6.03;;;7.40;99.90;;;;;;6251162;28;20326;-67
2021/03/05 05:02:54;;;;;;;9.00;5.50;;;7.40;99.90;;;;;;6235520;28;20270;-67
2021/03/05 05:05:57;;;;;;;8.70;5.93;;;7.40;99.90;;;;;;6235600;28;20251;-67
2021/03/05 05:08:59;;;;;;;9.73;6.23;;;7.40;99.90;;;;;;6233094;28;20295;-67
2021/03/05 05:12:02;;;;;;;10.97;5.50;;;7.40;99.90;;;;;;6235606;28;20223;-67
2021/03/05 05:15:05;;;;;;;9.77;6.10;;;7.40;99.90;;;;;;6234030;28;20322;-67
2021/03/05 05:18:07;;;;;;;8.03;5.90;;;7.50;99.90;;;;;;6235606;28;20240;-67
2021/03/05 05:21:09;;;;;;;8.13;5.53;;;7.40;99.90;;;;;;6235192;28;20564;-67
2021/03/05 05:24:11;;;;;;;7.10;5.67;;;7.50;99.90;;;;;;6234785;28;20548;-67
2021/03/05 05:27:13;;;;;;;9.17;5.50;;;7.50;99.90;;;;;;6235218;28;20220;-67
2021/03/05 05:30:15;;;;;;;7.87;5.40;;;7.50;99.90;;;;;;6217643;28;20313;-67
2021/03/05 05:33:17;;;;;;;7.90;5.67;;;7.50;99.90;;;;;;6234334;28;20601;-67
2021/03/05 05:36:20;;;;;;;8.07;6.07;;;7.50;99.90;;;;;;6232884;28;20208;-67
2021/03/05 05:39:22;;;;;;;9.00;5.37;;;7.60;99.90;;;;;;6216429;28;20227;-67
2021/03/05 05:42:26;;;;;;;10.17;6.13;;;7.60;99.90;;;;;;6233046;28;20220;-67
2021/03/05 05:45:28;;;;;;;8.07;5.87;;;7.60;99.90;;;;;;6233831;28;20221;-67
2021/03/05 05:48:30;;;;;;;8.07;6.03;;;7.60;99.90;;;;;;6234658;28;20228;-67
2021/03/05 05:51:35;;;;;;;6.87;6.00;;;7.60;99.90;;;;;;6216505;28;20227;-67
2021/03/05 05:54:41;;;;;;;10.03;5.33;;;7.60;99.90;;;;;;6199578;28;20251;-67
2021/03/05 05:57:43;;;;;;;7.30;5.50;;;7.60;99.90;;;;;;6233425;28;20228;-67
2021/03/05 06:00:45;;;;;;;9.90;6.03;;;7.60;99.90;;;;;;6233332;28;20599;-67
2021/03/05 06:03:47;;;;;;;10.03;5.93;;;7.70;99.90;;;;;;6200086;28;20244;-67
2021/03/05 06:06:49;;;;;;;7.47;5.50;;;7.70;99.90;;;;;;6216399;28;20273;-67
2021/03/05 06:09:52;;;;;;;8.63;5.50;;;7.70;99.90;;;;;;6232132;28;20655;-67
2021/03/05 06:12:54;;;;;;;9.83;5.87;;;7.70;99.90;;;;;;6232586;28;20823;-67
2021/03/05 06:16:17;;;;;;;7.13;4.83;;;7.70;99.90;;;;;;6232305;28;20716;-67
2021/03/05 06:19:24;;;;;;;6.00;4.97;;;7.80;99.90;;;;;;6215734;28;20239;-67
2021/03/05 06:22:28;;;;;;;7.43;5.10;;;7.70;99.90;;;;;;6232265;28;20220;-67
2021/03/05 06:25:35;;;;;;;7.70;4.97;;;7.80;99.90;;;;;;6233492;28;20588;-67
2021/03/05 06:28:37;;;;;;;6.20;5.23;;;7.70;99.90;;;;;;6242335;28;20231;-67
2021/03/05 06:31:39;;;;;;;5.47;4.50;;;7.80;99.90;;;;;;6257143;28;20245;-67
2021/03/05 06:34:54;;;;;;;8.13;5.73;;;7.70;99.90;;;;;;6256908;28;20312;-67
2021/03/05 06:37:57;;;;;;;7.10;5.70;;;7.80;99.90;;;;;;6257905;28;20259;-67
2021/03/05 06:41:14;;;;;;;6.40;5.50;;;7.70;99.90;;;;;;6239871;28;20336;-67
2021/03/05 06:44:23;;;;;;;8.03;5.50;;;7.70;99.90;;;;;;6257744;28;20603;-67
2021/03/05 06:47:26;;;;;;;7.67;5.33;;;7.70;99.90;;;;;;6256692;28;20249;-67
2021/03/05 06:50:29;;;;;;;7.70;6.10;;;7.70;99.90;;;;;;6240039;28;20711;-67
2021/03/05 06:53:31;;;;;;;6.37;5.63;;;7.70;99.90;;;;;;6256829;28;20235;-67
2021/03/05 06:56:34;;;;;;;7.60;5.67;;;7.70;99.90;;;;;;6255808;28;20225;-67
2021/03/05 06:59:38;;;;;;;9.73;5.73;;;7.70;99.90;;;;;;6256610;28;20314;-67
2021/03/05 07:02:41;;;;;;;7.23;5.53;;;7.70;99.90;;;;;;6257536;28;20233;-67
2021/03/05 07:05:50;;;;;;;6.40;5.30;;;7.70;99.90;;;;;;6277360;28;20773;-67
2021/03/05 07:08:53;;;;;;;8.00;4.70;;;7.60;99.90;;;;;;6280544;28;20239;-67
2021/03/05 07:11:56;;;;;;;5.93;4.93;;;7.60;99.90;;;;;;6280802;28;20307;-67
2021/03/05 07:15:06;;;;;;;5.87;4.70;;;7.60;99.90;;;;;;6280819;28;20330;-67
2021/03/05 07:18:08;;;;;;;8.20;5.53;;;7.60;99.90;;;;;;6262682;28;20232;-67
2021/03/05 07:21:10;;;;;;;6.30;5.20;;;7.40;99.90;;;;;;6262533;28;20706;-67
2021/03/05 07:24:14;;;;;;;4.87;4.13;;;7.00;99.90;;;;;;6280147;28;20217;-67
2021/03/05 07:27:21;;;;;;;5.80;4.40;;;6.40;99.90;;;;;;6281851;28;20369;-67
2021/03/05 07:30:25;;;;;;;4.33;3.90;;;5.70;99.90;;;;;;6279573;28;20261;-67
2021/03/05 07:33:32;;;;;;;4.90;4.03;;;5.30;99.90;;;;;;6279821;28;20274;-67
2021/03/05 07:36:39;;;;;;;4.07;3.57;;;4.90;99.90;;;;;;6262939;28;20228;-67
2021/03/05 07:39:49;;;;;;;3.60;3.30;;;4.60;99.90;;;;;;6280786;28;20576;-68
2021/03/05 07:42:53;;;;;;;4.00;3.60;;;4.50;99.90;;;;;;6279914;28;20305;-69
2021/03/05 07:45:57;;;;;;;5.20;4.17;;;4.30;99.90;;;;;;6280220;28;20310;-69
2021/03/05 07:49:00;;;;;;;4.07;3.67;;;4.20;99.90;;;;;;6261761;28;20219;-69
2021/03/05 07:52:03;;;;;;;3.83;3.53;;;4.10;99.90;;;;;;6280390;28;20219;-69
2021/03/05 07:55:07;;;;;;;6.00;4.63;;;4.00;99.90;;;;;;6280238;28;20241;-69
2021/03/05 07:58:10;;;;;;;4.67;4.07;;;3.90;99.90;;;;;;6264365;28;20249;-69
2021/03/05 08:01:12;;;;;;;6.43;4.40;;;3.80;99.90;;;;;;6261662;28;20260;-69
2021/03/05 08:04:14;;;;;;;5.03;3.40;;;3.80;99.90;;;;;;6271417;28;20219;-69
2021/03/05 08:07:24;;;;;;;4.40;3.57;;;3.70;99.90;;;;;;6253780;28;20223;-69
2021/03/05 08:10:37;;;;;;;5.60;3.97;;;3.70;99.90;;;;;;6256125;28;20733;-69
2021/03/05 08:13:53;;;;;;;5.27;3.83;;;3.70;99.90;;;;;;6254332;28;20240;-69
2021/03/05 08:16:55;;;;;;;4.53;3.70;;;3.70;99.90;;;;;;6254833;28;20649;-69
2021/03/05 08:19:57;;;;;;;6.23;3.90;;;3.70;99.90;;;;;;6257186;28;20230;-70
2021/03/05 08:23:00;;;;;;;4.30;3.43;;;3.70;99.90;;;;;;6238220;28;20223;-70
2021/03/05 08:26:02;;;;;;;3.60;2.90;;;3.70;99.90;;;;;;6237482;28;20614;-70
2021/03/05 08:29:04;;;;;;;4.17;3.20;;;3.60;99.90;;;;;;6256857;28;20254;-70
2021/03/05 08:32:35;;;;;;;3.80;3.30;;;3.60;99.90;;;;;;6239190;28;20230;-70
2021/03/05 08:35:41;;;;;;;3.70;2.60;;;3.50;99.90;;;;;;6252853;28;20334;-70
2021/03/05 08:38:43;;;;;;;2.87;2.60;;;3.50;99.90;;;;;;6254645;28;20795;-70
2021/03/05 08:41:45;;;;;;;3.53;3.10;;;3.50;99.90;;;;;;6255190;28;20231;-70
2021/03/05 08:45:07;;;;;;;4.83;3.20;;;3.50;99.90;;;;;;6237880;28;20319;-70
2021/03/05 08:48:11;;;;;;;4.00;3.00;;;3.50;99.90;;;;;;6254115;28;20697;-70
2021/03/05 08:51:20;;;;;;;3.53;2.63;;;3.40;99.90;;;;;;6255183;28;20332;-70
2021/03/05 08:54:22;;;;;;;3.77;2.33;;;3.40;99.90;;;;;;6236915;28;20710;-71
2021/03/05 08:57:24;;;;;;;3.97;2.90;;;3.40;99.90;;;;;;6237180;28;20219;-71
2021/03/05 09:00:31;;;;;;;3.57;2.57;;;3.40;99.90;;;;;;6256079;28;20247;-70
2021/03/05 09:03:33;;;;;;;4.13;2.70;;;3.40;99.90;;;;;;6259151;28;20273;-70
2021/03/05 09:06:35;;;;;;;3.93;2.93;;;3.30;99.90;;;;;;6283726;28;20260;-70
2021/03/05 09:09:37;;;;;;;3.87;2.80;;;3.30;99.90;;;;;;6283083;28;20354;-70
2021/03/05 09:13:00;;;;;;;3.03;2.37;;;3.30;99.90;;;;;;6284717;28;20311;-70
2021/03/05 09:16:03;;;;;;;2.77;1.90;;;3.30;99.90;;;;;;6266200;28;20242;-70
2021/03/05 09:19:05;;;;;;;2.40;2.10;;;3.30;99.90;;;;;;6264670;28;20242;-70
2021/03/05 09:22:08;;;;;;;4.03;2.37;;;3.30;99.90;;;;;;6265036;28;20230;-70
2021/03/05 09:25:10;;;;;;;1.93;1.67;;;3.40;99.90;;;;;;6283809;28;20230;-70
2021/03/05 09:28:12;;;;;;;2.03;1.80;;;3.40;99.90;;;;;;6283087;28;20327;-70
2021/03/05 09:31:16;;;;;;;2.43;1.80;;;3.40;99.90;;;;;;6265305;28;20395;-70
2021/03/05 09:34:17;;;;;;;3.53;1.53;;;3.50;99.90;;;;;;6283593;28;20234;-70
2021/03/05 09:37:21;;;;;;;2.27;1.57;;;3.50;99.90;;;;;;6282749;28;20221;-70
2021/03/05 09:40:25;;;;;;;2.40;1.70;;;3.50;99.90;;;;;;6282048;28;20243;-70
2021/03/05 09:43:27;;;;;;;1.60;1.50;;;3.50;99.90;;;;;;6282608;28;20711;-70
2021/03/05 09:46:34;;;;;;;2.27;1.63;;;3.40;99.90;;;;;;6282997;28;20585;-70
2021/03/05 09:49:37;;;;;;;2.00;1.67;;;3.50;99.90;;;;;;6283517;28;20280;-70
2021/03/05 09:52:39;;;;;;;4.50;1.57;;;3.50;99.90;;;;;;6282396;28;20714;-70
2021/03/05 09:55:41;;;;;;;2.23;1.57;;;3.60;99.90;;;;;;6264686;28;20268;-70
2021/03/05 09:58:54;;;;;;;2.37;2.00;;;3.60;99.90;;;;;;6265295;28;20232;-70
2021/03/05 10:01:59;;;;;;;1.87;1.50;;;3.70;99.90;;;;;;6265720;28;20226;-70
2021/03/05 10:05:03;;;;;;;2.10;1.90;;;3.70;99.90;;;;;;6265941;28;20223;-70
2021/03/05 10:08:25;;;;;;;2.43;1.93;;;3.70;99.90;;;;;;6259207;28;20734;-70
2021/03/05 10:11:32;;;;;;;3.87;2.30;;;3.60;99.90;;;;;;6257887;28;20223;-70
2021/03/05 10:14:39;;;;;;;2.63;1.87;;;3.60;99.90;;;;;;6257513;28;20234;-70
2021/03/05 10:17:41;;;;;;;2.90;2.10;;;3.50;99.90;;;;;;6257713;28;20592;-70
2021/03/05 10:20:51;;;;;;;4.10;2.53;;;3.50;99.90;;;;;;6257537;28;20241;-70
2021/03/05 10:23:53;;;;;;;3.67;2.50;;;3.40;99.90;;;;;;6257403;28;20231;-70
2021/03/05 10:27:20;;;;;;;2.70;1.90;;;3.30;99.90;;;;;;6256258;28;20223;-70
2021/03/05 10:30:22;;;;;;;3.77;2.40;;;3.30;99.90;;;;;;6256560;28;20235;-70
2021/03/05 10:33:43;;;;;;;3.73;2.77;;;3.20;99.90;;;;;;6241734;28;20257;-70
2021/03/05 10:36:45;;;;;;;3.37;2.80;;;3.20;99.90;;;;;;6280763;28;20280;-70
2021/03/05 10:39:48;;;;;;;2.90;2.37;;;3.20;99.90;;;;;;6281796;28;20229;-70
2021/03/05 10:42:50;;;;;;;3.67;2.87;;;3.30;99.90;;;;;;6248097;28;20229;-70
2021/03/05 10:45:52;;;;;;;4.33;2.97;;;3.30;99.90;;;;;;6263972;28;20710;-70
2021/03/05 10:48:54;;;;;;;4.50;2.83;;;3.40;99.90;;;;;;6281834;28;20222;-70
2021/03/05 10:51:57;;;;;;;4.80;3.17;;;3.50;99.90;;;;;;6280867;28;20230;-70
2021/03/05 10:54:59;;;;;;;3.47;2.87;;;3.60;99.90;;;;;;6264261;28;20241;-70
2021/03/05 10:58:02;;;;;;;3.43;2.53;;;3.70;99.90;;;;;;6279951;28;20327;-70
2021/03/05 11:01:04;;;;;;;4.07;2.83;;;3.80;99.90;;;;;;6280972;28;20230;-70
2021/03/05 11:04:06;;;;;;;3.90;3.07;;;3.80;99.90;;;;;;6263250;28;20228;-70
2021/03/05 11:07:09;;;;;;;4.17;2.90;;;3.90;99.90;;;;;;6280853;28;20286;-70
2021/03/05 11:10:11;;;;;;;3.40;2.67;;;3.90;99.90;;;;;;6280331;28;20229;-70
2021/03/05 11:13:13;;;;;;;3.70;2.50;;;3.80;99.90;;;;;;6279834;28;20327;-70
2021/03/05 11:16:15;;;;;;;2.70;2.10;;;3.70;99.90;;;;;;6262336;28;20229;-70
2021/03/05 11:19:17;;;;;;;3.03;2.23;;;3.60;99.90;;;;;;6262801;28;20241;-70
2021/03/05 11:22:19;;;;;;;2.60;2.20;;;3.50;99.90;;;;;;6280872;28;20230;-70
2021/03/05 11:25:23;;;;;;;1.97;1.80;;;3.50;99.90;;;;;;6263603;28;20230;-70
2021/03/05 11:28:25;;;;;;;3.37;2.20;;;3.50;99.90;;;;;;6279966;28;20230;-70
2021/03/05 11:31:27;;;;;;;2.73;1.80;;;3.50;99.90;;;;;;6263143;28;20859;-70
2021/03/05 11:34:29;;;;;;;2.17;1.40;;;3.50;99.90;;;;;;6280449;28;20746;-70
2021/03/05 11:37:31;;;;;;;2.20;1.73;;;3.40;99.90;;;;;;6279703;28;20523;-70
2021/03/05 11:40:34;;;;;;;2.90;2.30;;;3.40;99.90;;;;;;6280920;28;20379;-70
2021/03/05 11:43:42;;;;;;;2.17;1.57;;;3.40;99.90;;;;;;6262743;28;20230;-70
2021/03/05 11:46:44;;;;;;;3.47;2.43;;;3.40;99.90;;;;;;6280126;28;20353;-70
2021/03/05 11:49:46;;;;;;;2.37;2.17;;;3.40;99.90;;;;;;6263102;28;20708;-70
2021/03/05 11:52:48;;;;;;;2.53;1.97;;;3.40;99.90;;;;;;6280685;28;20257;-70
2021/03/05 11:55:49;;;;;;;3.87;2.20;;;3.30;99.90;;;;;;6281034;28;20381;-70
2021/03/05 11:58:53;;;;;;;2.73;1.77;;;3.30;99.90;;;;;;6279312;28;20317;-70
2021/03/05 12:01:54;;;;;;;3.50;2.23;;;3.40;99.90;;;;;;6281684;28;20311;-70
2021/03/05 12:04:56;;;;;;;3.27;2.70;;;3.40;99.90;;;;;;6264647;28;20614;-70
2021/03/05 12:07:58;;;;;;;3.23;2.80;;;3.50;99.90;;;;;;6237482;28;20277;-70
2021/03/05 12:11:00;;;;;;;3.53;2.70;;;3.40;99.90;;;;;;6255324;28;20231;-70
2021/03/05 12:14:01;;;;;;;3.23;2.60;;;3.40;99.90;;;;;;6237426;28;20368;-70
2021/03/05 12:17:04;;;;;;;3.20;2.40;;;3.40;99.90;;;;;;6255589;28;20726;-70
2021/03/05 12:20:07;;;;;;;4.27;3.13;;;3.30;99.90;;;;;;6237848;28;20227;-70
2021/03/05 12:23:09;;;;;;;3.73;2.77;;;3.30;99.90;;;;;;6255234;28;20310;-70
2021/03/05 12:26:11;;;;;;;3.23;2.67;;;3.40;99.90;;;;;;6255421;28;20231;-70
2021/03/05 12:29:14;;;;;;;3.33;2.33;;;3.60;99.90;;;;;;6254193;28;20242;-70
2021/03/05 12:32:16;;;;;;;2.73;2.37;;;3.90;99.90;;;;;;6239032;28;20270;-70
2021/03/05 12:35:18;;;;;;;3.57;2.47;;;4.30;99.90;;;;;;6238443;28;20237;-70
2021/03/05 12:38:20;;;;;;;3.40;2.73;;;4.70;99.90;;;;;;6238010;28;20591;-70
2021/03/05 12:41:22;;;;;;;3.73;2.77;;;5.00;99.90;;;;;;6241414;28;20702;-70
2021/03/05 12:44:24;;;;;;;4.63;3.07;;;5.10;99.90;;;;;;6260348;28;20227;-70
2021/03/05 12:47:26;;;;;;;4.70;3.30;;;5.20;99.90;;;;;;6259770;28;20751;-70
2021/03/05 12:50:29;;;;;;;5.00;3.70;;;5.30;99.90;;;;;;6241790;28;20220;-70
2021/03/05 12:53:30;;;;;;;4.53;3.53;;;5.40;99.90;;;;;;6259782;28;20738;-70
2021/03/05 12:56:34;;;;;;;5.07;4.03;;;5.50;99.90;;;;;;6259780;28;20241;-70
2021/03/05 12:59:35;;;;;;;5.77;4.17;;;5.50;99.90;;;;;;6259982;28;20230;-70
2021/03/05 13:02:37;;;;;;;6.73;4.27;;;5.40;99.90;;;;;;6243088;28;20232;-70
2021/03/05 13:05:40;;;;;;;5.73;4.73;;;5.20;99.90;;;;;;6262381;28;20225;-70
2021/03/05 13:08:42;;;;;;;7.57;5.60;;;5.00;99.90;;;;;;6284097;28;20236;-70
2021/03/05 13:11:44;;;;;;;8.50;5.43;;;4.70;99.90;;;;;;6249511;28;20312;-70
2021/03/05 13:14:45;;;;;;;6.80;5.27;;;4.50;99.90;;;;;;6283582;28;20737;-70
2021/03/05 13:17:47;;;;;;;9.37;6.27;;;4.40;99.90;;;;;;6266003;28;20230;-70
2021/03/05 13:20:50;;;;;;;8.87;5.80;;;4.20;99.90;;;;;;6283939;28;20296;-70
2021/03/05 13:23:52;;;;;;;7.07;5.27;;;4.10;99.90;;;;;;6283012;28;20312;-70
2021/03/05 13:26:54;;;;;;;7.07;4.97;;;4.10;99.90;;;;;;6283564;28;20764;-70
2021/03/05 13:29:56;;;;;;;7.53;5.50;;;4.30;99.90;;;;;;6283195;28;20226;-70
2021/03/05 13:33:00;;;;;;;9.27;6.50;;;4.40;99.90;;;;;;6282955;28;20226;-70
2021/03/05 13:36:03;;;;;;;7.80;5.70;;;4.50;99.90;;;;;;6282958;28;20269;-70
2021/03/05 13:39:05;;;;;;;7.30;5.70;;;4.50;99.90;;;;;;6283202;28;20280;-70
2021/03/05 13:42:07;;;;;;;8.73;6.23;;;4.40;99.90;;;;;;6283208;28;20207;-70
2021/03/05 13:45:09;;;;;;;8.67;6.17;;;4.30;99.90;;;;;;6282969;28;20682;-70
2021/03/05 13:48:12;;;;;;;9.57;6.47;;;4.20;99.90;;;;;;6284006;28;20200;-70
2021/03/05 13:51:14;;;;;;;8.17;5.70;;;4.20;99.90;;;;;;6264920;28;20262;-71
2021/03/05 13:54:16;;;;;;;7.90;5.50;;;4.30;99.90;;;;;;6281973;28;20314;-71
2021/03/05 13:57:18;;;;;;;9.73;6.80;;;4.30;99.90;;;;;;6265119;28;20207;-70
2021/03/05 14:00:20;;;;;;;8.43;6.20;;;4.40;99.90;;;;;;6282610;28;20299;-70
2021/03/05 14:03:22;;;;;;;9.10;6.53;;;4.50;99.90;;;;;;6279620;28;20222;-70
2021/03/05 14:06:24;;;;;;;9.27;7.03;;;4.70;99.90;;;;;;6257820;28;20219;-70
2021/03/05 14:09:25;;;;;;;9.27;6.63;;;4.80;99.90;;;;;;6256932;28;20220;-70
2021/03/05 14:12:27;;;;;;;7.57;5.90;;;4.80;99.90;;;;;;6256975;28;20307;-70
2021/03/05 14:15:32;;;;;;;8.80;6.40;;;4.90;99.90;;;;;;6257780;28;20239;-70
2021/03/05 14:18:33;;;;;;;7.37;5.73;;;5.00;99.90;;;;;;6240571;28;20228;-70
2021/03/05 14:21:36;;;;;;;9.07;6.17;;;5.00;99.90;;;;;;6257210;28;20713;-70
2021/03/05 14:24:38;;;;;;;10.00;6.47;;;4.90;99.90;;;;;;6258718;28;20223;-70
2021/03/05 14:27:40;;;;;;;8.83;6.23;;;4.80;99.90;;;;;;6239647;28;20226;-70
2021/03/05 14:30:42;;;;;;;9.53;5.87;;;4.70;99.90;;;;;;6258021;28;20389;-70
2021/03/05 14:33:43;;;;;;;8.57;5.90;;;4.70;99.90;;;;;;6257521;28;20267;-70
2021/03/05 14:36:45;;;;;;;8.90;6.47;;;4.60;99.90;;;;;;6257818;28;20266;-70
2021/03/05 14:39:48;;;;;;;8.80;5.87;;;4.50;99.90;;;;;;6239333;28;20251;-70
2021/03/05 14:42:50;;;;;;;8.43;6.10;;;4.30;99.90;;;;;;6257602;28;20277;-70
2021/03/05 14:45:52;;;;;;;7.27;5.10;;;4.20;99.90;;;;;;6257607;28;20324;-70
2021/03/05 14:48:54;;;;;;;7.97;5.43;;;4.20;99.90;;;;;;6256311;28;20310;-70
2021/03/05 14:51:56;;;;;;;6.77;5.03;;;4.20;99.90;;;;;;6257184;28;20224;-70
2021/03/05 14:54:58;;;;;;;6.37;4.83;;;4.20;99.90;;;;;;6256810;28;20231;-70
2021/03/05 14:58:00;;;;;;;7.27;5.10;;;4.20;99.90;;;;;;6237578;28;20342;-70
2021/03/05 15:01:04;;;;;;;7.87;5.67;;;4.20;99.90;;;;;;6256673;28;20239;-70
2021/03/05 15:04:06;;;;;;;5.90;4.30;;;4.20;99.90;;;;;;6245606;28;20231;-70
2021/03/05 15:07:09;;;;;;;6.37;4.83;;;4.00;99.90;;;;;;6262884;28;20694;-70
2021/03/05 15:10:11;;;;;;;5.10;4.07;;;4.00;99.90;;;;;;6280719;28;20236;-70
2021/03/05 15:13:13;;;;;;;5.83;4.20;;;4.00;99.90;;;;;;6281046;28;20596;-70
2021/03/05 15:16:15;;;;;;;5.93;4.17;;;4.00;99.90;;;;;;6281125;28;20326;-70
2021/03/05 15:19:17;;;;;;;7.07;4.40;;;3.80;99.90;;;;;;6280068;28;20625;-70
2021/03/05 15:22:19;;;;;;;6.07;4.70;;;3.50;99.90;;;;;;6280725;28;20227;-70
2021/03/05 15:25:21;;;;;;;6.90;4.80;;;3.30;99.90;;;;;;6262413;28;20230;-70
2021/03/05 15:28:23;;;;;;;5.80;4.60;;;3.20;99.90;;;;;;6279703;28;20241;-69
2021/03/05 15:31:25;;;;;;;6.83;4.70;;;3.20;99.90;;;;;;6279823;28;20223;-67
2021/03/05 15:34:28;;;;;;;2.77;2.43;;;3.10;99.90;;;;;;6260302;28;20242;-67
2021/03/05 15:37:31;;;;;;;3.70;2.70;;;2.90;99.90;;;;;;6230502;28;20245;-68
2021/03/05 15:40:33;;;;;;;4.43;3.43;;;2.60;99.90;;;;;;6214256;28;20231;-66
2021/03/05 15:43:35;;;;;;;4.07;3.23;;;2.30;99.90;;;;;;6214947;28;20591;-66
2021/03/05 15:46:38;;;;;;;5.40;4.00;;;2.10;99.90;;;;;;6230897;28;20256;-66
2021/03/05 15:49:41;;;;;;;5.30;4.27;;;1.90;99.90;;;;;;6230963;28;20712;-66
2021/03/05 15:52:44;;;;;;;6.30;4.20;;;1.90;99.90;;;;;;6231184;28;20230;-66
2021/03/05 15:55:47;;;;;;;5.83;4.63;;;1.80;99.90;;;;;;6230577;28;20736;-67
2021/03/05 15:58:49;;;;;;;5.23;3.93;;;1.70;99.90;;;;;;6232026;28;20251;-66
2021/03/05 16:01:51;;;;;;;6.20;4.30;;;1.70;99.90;;;;;;6253960;28;20579;-66
2021/03/05 16:04:54;;;;;;;5.90;4.30;;;1.60;99.90;;;;;;6256633;28;20268;-66
2021/03/05 16:07:56;;;;;;;5.50;3.90;;;1.70;99.90;;;;;;6254798;28;20240;-66